sensor_id;sensor_type;location;lat;lon;timestamp;P1;durP1;ratioP1;P2;durP2;ratioP2
34212;SDS011;20477;51.390;8.102;2023-10-31T00:02:11;1.05;;;0.70;;
34212;SDS011;20477;51.390;8.102;2023-10-31T00:04:38;1.38;;;0.77;;
34212;SDS011;20477;51.390;8.102;2023-10-31T00:07:06;1.10;;;0.75;;
34212;SDS011;20477;51.390;8.102;2023-10-31T00:09:33;3.75;;;0.70;;
34212;SDS011;20477;51.390;8.102;2023-10-31T00:12:00;2.10;;;0.77;;
34212;SDS011;20477;51.390;8.102;2023-10-31T00:14:27;2.22;;;0.70;;
34212;SDS011;20477;51.390;8.102;2023-10-31T00:16:57;0.60;;;0.60;;
34212;SDS011;20477;51.390;8.102;2023-10-31T00:19:26;0.85;;;0.63;;
34212;SDS011;20477;51.390;8.102;2023-10-31T00:21:53;0.88;;;0.88;;
34212;SDS011;20477;51.390;8.102;2023-10-31T00:24:20;0.98;;;0.52;;
34212;SDS011;20477;51.390;8.102;2023-10-31T00:26:48;0.65;;;0.57;;
34212;SDS011;20477;51.390;8.102;2023-10-31T00:29:15;0.50;;;0.50;;
34212;SDS011;20477;51.390;8.102;2023-10-31T00:31:42;0.50;;;0.50;;
34212;SDS011;20477;51.390;8.102;2023-10-31T00:34:10;0.50;;;0.50;;
34212;SDS011;20477;51.390;8.102;2023-10-31T00:36:38;1.52;;;0.80;;
34212;SDS011;20477;51.390;8.102;2023-10-31T00:39:05;1.75;;;0.70;;
34212;SDS011;20477;51.390;8.102;2023-10-31T00:41:33;1.20;;;0.70;;
34212;SDS011;20477;51.390;8.102;2023-10-31T00:44:00;2.70;;;1.23;;
34212;SDS011;20477;51.390;8.102;2023-10-31T00:46:27;1.45;;;1.17;;
34212;SDS011;20477;51.390;8.102;2023-10-31T00:48:54;2.90;;;1.00;;
34212;SDS011;20477;51.390;8.102;2023-10-31T00:51:22;1.38;;;0.90;;
34212;SDS011;20477;51.390;8.102;2023-10-31T00:53:50;3.35;;;1.02;;
34212;SDS011;20477;51.390;8.102;2023-10-31T00:56:17;3.65;;;1.10;;
34212;SDS011;20477;51.390;8.102;2023-10-31T00:58:45;1.60;;;1.10;;
34212;SDS011;20477;51.390;8.102;2023-10-31T01:01:12;1.25;;;1.10;;
34212;SDS011;20477;51.390;8.102;2023-10-31T01:03:41;4.88;;;1.40;;
34212;SDS011;20477;51.390;8.102;2023-10-31T01:06:08;1.42;;;1.08;;
34212;SDS011;20477;51.390;8.102;2023-10-31T01:08:36;1.70;;;1.60;;
34212;SDS011;20477;51.390;8.102;2023-10-31T01:11:05;1.95;;;1.33;;
34212;SDS011;20477;51.390;8.102;2023-10-31T01:13:32;3.42;;;1.40;;
34212;SDS011;20477;51.390;8.102;2023-10-31T01:15:59;1.20;;;1.10;;
34212;SDS011;20477;51.390;8.102;2023-10-31T01:18:26;3.10;;;1.20;;
34212;SDS011;20477;51.390;8.102;2023-10-31T01:20:54;2.67;;;1.05;;
34212;SDS011;20477;51.390;8.102;2023-10-31T01:23:21;0.98;;;0.90;;
34212;SDS011;20477;51.390;8.102;2023-10-31T01:25:48;2.33;;;1.23;;
34212;SDS011;20477;51.390;8.102;2023-10-31T01:28:17;2.25;;;1.20;;
34212;SDS011;20477;51.390;8.102;2023-10-31T01:30:44;1.13;;;1.10;;
34212;SDS011;20477;51.390;8.102;2023-10-31T01:33:11;1.40;;;1.30;;
34212;SDS011;20477;51.390;8.102;2023-10-31T01:35:39;4.30;;;1.48;;
34212;SDS011;20477;51.390;8.102;2023-10-31T01:38:06;1.20;;;1.10;;
34212;SDS011;20477;51.390;8.102;2023-10-31T01:40:33;2.22;;;1.13;;
34212;SDS011;20477;51.390;8.102;2023-10-31T01:43:01;1.20;;;0.88;;
34212;SDS011;20477;51.390;8.102;2023-10-31T01:45:29;3.72;;;0.90;;
34212;SDS011;20477;51.390;8.102;2023-10-31T01:47:56;2.95;;;0.60;;
34212;SDS011;20477;51.390;8.102;2023-10-31T01:50:24;1.70;;;0.60;;
34212;SDS011;20477;51.390;8.102;2023-10-31T01:52:52;1.73;;;0.88;;
34212;SDS011;20477;51.390;8.102;2023-10-31T01:55:19;0.55;;;0.55;;
34212;SDS011;20477;51.390;8.102;2023-10-31T01:57:47;1.13;;;0.88;;
34212;SDS011;20477;51.390;8.102;2023-10-31T02:00:15;2.33;;;1.08;;
34212;SDS011;20477;51.390;8.102;2023-10-31T02:02:44;3.28;;;1.10;;
34212;SDS011;20477;51.390;8.102;2023-10-31T02:05:12;3.28;;;0.90;;
34212;SDS011;20477;51.390;8.102;2023-10-31T02:07:39;1.40;;;0.90;;
34212;SDS011;20477;51.390;8.102;2023-10-31T02:10:07;1.67;;;0.80;;
34212;SDS011;20477;51.390;8.102;2023-10-31T02:12:34;1.30;;;0.90;;
34212;SDS011;20477;51.390;8.102;2023-10-31T02:15:02;1.67;;;0.70;;
34212;SDS011;20477;51.390;8.102;2023-10-31T02:17:30;0.73;;;0.65;;
34212;SDS011;20477;51.390;8.102;2023-10-31T02:19:58;0.68;;;0.60;;
34212;SDS011;20477;51.390;8.102;2023-10-31T02:22:27;2.50;;;0.80;;
34212;SDS011;20477;51.390;8.102;2023-10-31T02:24:54;1.30;;;0.82;;
34212;SDS011;20477;51.390;8.102;2023-10-31T02:27:22;1.63;;;0.88;;
34212;SDS011;20477;51.390;8.102;2023-10-31T02:29:49;4.38;;;1.08;;
34212;SDS011;20477;51.390;8.102;2023-10-31T02:32:16;1.17;;;1.00;;
34212;SDS011;20477;51.390;8.102;2023-10-31T02:34:44;1.95;;;1.23;;
34212;SDS011;20477;51.390;8.102;2023-10-31T02:37:11;2.22;;;0.95;;
34212;SDS011;20477;51.390;8.102;2023-10-31T02:39:40;1.10;;;1.00;;
34212;SDS011;20477;51.390;8.102;2023-10-31T02:42:07;2.45;;;1.08;;
34212;SDS011;20477;51.390;8.102;2023-10-31T02:44:34;2.35;;;1.13;;
34212;SDS011;20477;51.390;8.102;2023-10-31T02:47:02;3.63;;;0.80;;
34212;SDS011;20477;51.390;8.102;2023-10-31T02:49:29;2.55;;;1.05;;
34212;SDS011;20477;51.390;8.102;2023-10-31T02:51:56;1.63;;;1.27;;
34212;SDS011;20477;51.390;8.102;2023-10-31T02:54:24;0.85;;;0.70;;
34212;SDS011;20477;51.390;8.102;2023-10-31T02:56:52;2.03;;;0.98;;
34212;SDS011;20477;51.390;8.102;2023-10-31T02:59:19;1.33;;;0.90;;
34212;SDS011;20477;51.390;8.102;2023-10-31T03:01:47;2.95;;;1.10;;
34212;SDS011;20477;51.390;8.102;2023-10-31T03:04:14;0.82;;;0.77;;
34212;SDS011;20477;51.390;8.102;2023-10-31T03:06:41;1.85;;;1.13;;
34212;SDS011;20477;51.390;8.102;2023-10-31T03:09:09;2.13;;;0.90;;
34212;SDS011;20477;51.390;8.102;2023-10-31T03:11:36;5.10;;;1.08;;
34212;SDS011;20477;51.390;8.102;2023-10-31T03:14:04;1.27;;;0.98;;
34212;SDS011;20477;51.390;8.102;2023-10-31T03:16:32;4.45;;;1.75;;
34212;SDS011;20477;51.390;8.102;2023-10-31T03:18:59;1.48;;;1.08;;
34212;SDS011;20477;51.390;8.102;2023-10-31T03:21:26;2.13;;;1.05;;
34212;SDS011;20477;51.390;8.102;2023-10-31T03:23:54;1.27;;;0.93;;
34212;SDS011;20477;51.390;8.102;2023-10-31T03:26:21;4.63;;;1.50;;
34212;SDS011;20477;51.390;8.102;2023-10-31T03:28:48;3.35;;;1.20;;
34212;SDS011;20477;51.390;8.102;2023-10-31T03:31:17;2.72;;;1.50;;
34212;SDS011;20477;51.390;8.102;2023-10-31T03:33:44;1.55;;;1.23;;
34212;SDS011;20477;51.390;8.102;2023-10-31T03:36:12;2.67;;;1.52;;
34212;SDS011;20477;51.390;8.102;2023-10-31T03:38:39;7.57;;;2.50;;
34212;SDS011;20477;51.390;8.102;2023-10-31T03:41:07;3.33;;;2.00;;
34212;SDS011;20477;51.390;8.102;2023-10-31T03:43:35;8.75;;;2.70;;
34212;SDS011;20477;51.390;8.102;2023-10-31T03:46:02;4.43;;;2.08;;
34212;SDS011;20477;51.390;8.102;2023-10-31T03:48:31;5.85;;;2.85;;
34212;SDS011;20477;51.390;8.102;2023-10-31T03:50:58;6.00;;;2.72;;
34212;SDS011;20477;51.390;8.102;2023-10-31T03:53:25;6.22;;;2.90;;
34212;SDS011;20477;51.390;8.102;2023-10-31T03:55:52;6.65;;;2.55;;
34212;SDS011;20477;51.390;8.102;2023-10-31T03:58:20;4.68;;;2.58;;
34212;SDS011;20477;51.390;8.102;2023-10-31T04:00:47;7.63;;;2.97;;
34212;SDS011;20477;51.390;8.102;2023-10-31T04:03:14;6.85;;;3.03;;
34212;SDS011;20477;51.390;8.102;2023-10-31T04:05:43;6.18;;;3.13;;
34212;SDS011;20477;51.390;8.102;2023-10-31T04:08:10;8.85;;;2.53;;
34212;SDS011;20477;51.390;8.102;2023-10-31T04:10:38;5.43;;;2.70;;
34212;SDS011;20477;51.390;8.102;2023-10-31T04:13:05;6.05;;;2.45;;
34212;SDS011;20477;51.390;8.102;2023-10-31T04:15:32;6.63;;;2.45;;
34212;SDS011;20477;51.390;8.102;2023-10-31T04:17:59;3.85;;;2.30;;
34212;SDS011;20477;51.390;8.102;2023-10-31T04:20:27;4.15;;;1.98;;
34212;SDS011;20477;51.390;8.102;2023-10-31T04:22:55;4.63;;;2.40;;
34212;SDS011;20477;51.390;8.102;2023-10-31T04:25:23;3.28;;;1.73;;
34212;SDS011;20477;51.390;8.102;2023-10-31T04:27:50;7.03;;;2.13;;
34212;SDS011;20477;51.390;8.102;2023-10-31T04:30:17;2.88;;;1.63;;
34212;SDS011;20477;51.390;8.102;2023-10-31T04:32:44;2.88;;;1.35;;
34212;SDS011;20477;51.390;8.102;2023-10-31T04:35:12;4.35;;;1.35;;
34212;SDS011;20477;51.390;8.102;2023-10-31T04:37:39;4.38;;;1.60;;
34212;SDS011;20477;51.390;8.102;2023-10-31T04:40:09;4.25;;;1.65;;
34212;SDS011;20477;51.390;8.102;2023-10-31T04:42:38;2.70;;;1.77;;
34212;SDS011;20477;51.390;8.102;2023-10-31T04:45:05;3.75;;;2.03;;
34212;SDS011;20477;51.390;8.102;2023-10-31T04:47:33;3.25;;;1.85;;
34212;SDS011;20477;51.390;8.102;2023-10-31T04:50:00;2.55;;;1.90;;
34212;SDS011;20477;51.390;8.102;2023-10-31T04:52:28;4.53;;;1.95;;
34212;SDS011;20477;51.390;8.102;2023-10-31T04:54:55;2.40;;;1.85;;
34212;SDS011;20477;51.390;8.102;2023-10-31T04:57:24;2.05;;;1.85;;
34212;SDS011;20477;51.390;8.102;2023-10-31T04:59:51;4.28;;;2.38;;
34212;SDS011;20477;51.390;8.102;2023-10-31T05:02:18;2.25;;;2.05;;
34212;SDS011;20477;51.390;8.102;2023-10-31T05:04:47;3.53;;;3.05;;
34212;SDS011;20477;51.390;8.102;2023-10-31T05:07:15;3.28;;;2.97;;
34212;SDS011;20477;51.390;8.102;2023-10-31T05:09:42;5.38;;;3.17;;
34212;SDS011;20477;51.390;8.102;2023-10-31T05:12:13;6.13;;;3.35;;
34212;SDS011;20477;51.390;8.102;2023-10-31T05:14:42;5.00;;;3.13;;
34212;SDS011;20477;51.390;8.102;2023-10-31T05:17:09;6.93;;;3.50;;
34212;SDS011;20477;51.390;8.102;2023-10-31T05:19:37;4.35;;;3.50;;
34212;SDS011;20477;51.390;8.102;2023-10-31T05:22:04;5.93;;;3.28;;
34212;SDS011;20477;51.390;8.102;2023-10-31T05:24:31;5.13;;;3.47;;
34212;SDS011;20477;51.390;8.102;2023-10-31T05:26:58;5.03;;;3.13;;
34212;SDS011;20477;51.390;8.102;2023-10-31T05:29:26;3.15;;;2.83;;
34212;SDS011;20477;51.390;8.102;2023-10-31T05:31:54;6.00;;;3.40;;
34212;SDS011;20477;51.390;8.102;2023-10-31T05:34:22;6.43;;;3.47;;
34212;SDS011;20477;51.390;8.102;2023-10-31T05:36:49;6.28;;;3.30;;
34212;SDS011;20477;51.390;8.102;2023-10-31T05:39:16;4.78;;;3.13;;
34212;SDS011;20477;51.390;8.102;2023-10-31T05:41:43;4.05;;;2.92;;
34212;SDS011;20477;51.390;8.102;2023-10-31T05:44:11;5.63;;;3.75;;
34212;SDS011;20477;51.390;8.102;2023-10-31T05:46:38;5.43;;;3.42;;
34212;SDS011;20477;51.390;8.102;2023-10-31T05:49:07;4.55;;;3.45;;
34212;SDS011;20477;51.390;8.102;2023-10-31T05:51:35;5.50;;;2.97;;
34212;SDS011;20477;51.390;8.102;2023-10-31T05:54:02;3.88;;;2.72;;
34212;SDS011;20477;51.390;8.102;2023-10-31T05:56:29;4.15;;;3.53;;
34212;SDS011;20477;51.390;8.102;2023-10-31T05:58:57;5.82;;;3.20;;
34212;SDS011;20477;51.390;8.102;2023-10-31T06:01:24;3.88;;;2.97;;
34212;SDS011;20477;51.390;8.102;2023-10-31T06:03:51;5.43;;;2.92;;
34212;SDS011;20477;51.390;8.102;2023-10-31T06:06:20;3.72;;;3.03;;
34212;SDS011;20477;51.390;8.102;2023-10-31T06:08:47;3.20;;;2.55;;
34212;SDS011;20477;51.390;8.102;2023-10-31T06:11:14;4.50;;;3.05;;
34212;SDS011;20477;51.390;8.102;2023-10-31T06:13:42;3.58;;;2.70;;
34212;SDS011;20477;51.390;8.102;2023-10-31T06:16:09;3.95;;;2.60;;
34212;SDS011;20477;51.390;8.102;2023-10-31T06:18:37;4.40;;;2.70;;
34212;SDS011;20477;51.390;8.102;2023-10-31T06:21:05;3.05;;;2.33;;
34212;SDS011;20477;51.390;8.102;2023-10-31T06:23:34;3.33;;;2.60;;
34212;SDS011;20477;51.390;8.102;2023-10-31T06:26:01;4.53;;;2.80;;
34212;SDS011;20477;51.390;8.102;2023-10-31T06:28:28;4.15;;;2.97;;
34212;SDS011;20477;51.390;8.102;2023-10-31T06:30:55;3.05;;;2.72;;
34212;SDS011;20477;51.390;8.102;2023-10-31T06:33:23;3.05;;;2.75;;
34212;SDS011;20477;51.390;8.102;2023-10-31T06:35:50;4.30;;;2.85;;
34212;SDS011;20477;51.390;8.102;2023-10-31T06:38:17;4.22;;;2.53;;
34212;SDS011;20477;51.390;8.102;2023-10-31T06:40:46;2.90;;;2.45;;
34212;SDS011;20477;51.390;8.102;2023-10-31T06:43:13;2.92;;;2.63;;
34212;SDS011;20477;51.390;8.102;2023-10-31T06:45:40;4.80;;;2.88;;
34212;SDS011;20477;51.390;8.102;2023-10-31T06:48:07;6.30;;;2.97;;
34212;SDS011;20477;51.390;8.102;2023-10-31T06:50:35;3.47;;;2.40;;
34212;SDS011;20477;51.390;8.102;2023-10-31T06:53:02;3.50;;;2.50;;
34212;SDS011;20477;51.390;8.102;2023-10-31T06:55:30;4.43;;;2.20;;
34212;SDS011;20477;51.390;8.102;2023-10-31T06:57:58;5.20;;;2.38;;
34212;SDS011;20477;51.390;8.102;2023-10-31T07:00:26;2.90;;;2.08;;
34212;SDS011;20477;51.390;8.102;2023-10-31T07:02:54;3.25;;;2.42;;
34212;SDS011;20477;51.390;8.102;2023-10-31T07:05:21;4.10;;;2.70;;
34212;SDS011;20477;51.390;8.102;2023-10-31T07:07:48;6.00;;;3.55;;
34212;SDS011;20477;51.390;8.102;2023-10-31T07:10:16;4.00;;;2.95;;
34212;SDS011;20477;51.390;8.102;2023-10-31T07:12:43;3.95;;;3.30;;
34212;SDS011;20477;51.390;8.102;2023-10-31T07:15:12;4.65;;;3.15;;
34212;SDS011;20477;51.390;8.102;2023-10-31T07:17:39;6.10;;;2.95;;
34212;SDS011;20477;51.390;8.102;2023-10-31T07:20:07;6.28;;;3.50;;
34212;SDS011;20477;51.390;8.102;2023-10-31T07:22:34;6.53;;;4.18;;
34212;SDS011;20477;51.390;8.102;2023-10-31T07:25:01;6.63;;;3.72;;
34212;SDS011;20477;51.390;8.102;2023-10-31T07:27:28;7.03;;;3.92;;
34212;SDS011;20477;51.390;8.102;2023-10-31T07:29:56;5.40;;;3.63;;
34212;SDS011;20477;51.390;8.102;2023-10-31T07:32:25;5.28;;;3.38;;
34212;SDS011;20477;51.390;8.102;2023-10-31T07:34:52;9.15;;;3.83;;
34212;SDS011;20477;51.390;8.102;2023-10-31T07:37:19;6.32;;;4.40;;
34212;SDS011;20477;51.390;8.102;2023-10-31T07:39:47;6.85;;;4.47;;
34212;SDS011;20477;51.390;8.102;2023-10-31T07:42:14;6.00;;;3.80;;
34212;SDS011;20477;51.390;8.102;2023-10-31T07:44:41;5.95;;;3.85;;
34212;SDS011;20477;51.390;8.102;2023-10-31T07:47:08;11.05;;;4.30;;
34212;SDS011;20477;51.390;8.102;2023-10-31T07:49:37;9.30;;;4.10;;
34212;SDS011;20477;51.390;8.102;2023-10-31T07:52:05;5.88;;;3.22;;
34212;SDS011;20477;51.390;8.102;2023-10-31T07:54:32;6.60;;;4.00;;
34212;SDS011;20477;51.390;8.102;2023-10-31T07:56:59;4.47;;;3.65;;
34212;SDS011;20477;51.390;8.102;2023-10-31T07:59:27;5.03;;;3.35;;
34212;SDS011;20477;51.390;8.102;2023-10-31T08:01:54;6.55;;;3.72;;
34212;SDS011;20477;51.390;8.102;2023-10-31T08:04:21;4.03;;;3.40;;
34212;SDS011;20477;51.390;8.102;2023-10-31T08:06:50;4.55;;;3.22;;
34212;SDS011;20477;51.390;8.102;2023-10-31T08:09:17;3.42;;;3.13;;
34212;SDS011;20477;51.390;8.102;2023-10-31T08:11:44;4.75;;;3.25;;
34212;SDS011;20477;51.390;8.102;2023-10-31T08:14:12;3.92;;;3.53;;
34212;SDS011;20477;51.390;8.102;2023-10-31T08:16:39;4.13;;;3.30;;
34212;SDS011;20477;51.390;8.102;2023-10-31T08:19:06;7.75;;;3.05;;
34212;SDS011;20477;51.390;8.102;2023-10-31T08:21:33;4.35;;;3.30;;
34212;SDS011;20477;51.390;8.102;2023-10-31T08:24:02;4.43;;;2.45;;
34212;SDS011;20477;51.390;8.102;2023-10-31T08:26:30;4.78;;;3.35;;
34212;SDS011;20477;51.390;8.102;2023-10-31T08:28:57;4.82;;;2.85;;
34212;SDS011;20477;51.390;8.102;2023-10-31T08:31:25;4.57;;;2.80;;
34212;SDS011;20477;51.390;8.102;2023-10-31T08:33:52;5.43;;;2.63;;
34212;SDS011;20477;51.390;8.102;2023-10-31T08:36:19;5.78;;;2.65;;
34212;SDS011;20477;51.390;8.102;2023-10-31T08:38:46;4.10;;;3.10;;
34212;SDS011;20477;51.390;8.102;2023-10-31T08:41:15;3.88;;;2.50;;
34212;SDS011;20477;51.390;8.102;2023-10-31T08:43:42;10.00;;;2.80;;
34212;SDS011;20477;51.390;8.102;2023-10-31T08:46:09;3.65;;;2.38;;
34212;SDS011;20477;51.390;8.102;2023-10-31T08:48:37;3.20;;;2.17;;
34212;SDS011;20477;51.390;8.102;2023-10-31T08:51:04;5.45;;;2.08;;
34212;SDS011;20477;51.390;8.102;2023-10-31T08:53:31;8.02;;;2.47;;
34212;SDS011;20477;51.390;8.102;2023-10-31T08:55:59;6.47;;;2.20;;
34212;SDS011;20477;51.390;8.102;2023-10-31T08:58:27;7.50;;;2.00;;
34212;SDS011;20477;51.390;8.102;2023-10-31T09:00:55;5.45;;;1.90;;
34212;SDS011;20477;51.390;8.102;2023-10-31T09:03:22;4.10;;;1.88;;
34212;SDS011;20477;51.390;8.102;2023-10-31T09:05:49;5.00;;;2.03;;
34212;SDS011;20477;51.390;8.102;2023-10-31T09:08:17;1.80;;;1.50;;
34212;SDS011;20477;51.390;8.102;2023-10-31T09:10:44;3.70;;;2.30;;
34212;SDS011;20477;51.390;8.102;2023-10-31T09:13:11;2.35;;;1.92;;
34212;SDS011;20477;51.390;8.102;2023-10-31T09:15:40;7.82;;;2.08;;
34212;SDS011;20477;51.390;8.102;2023-10-31T09:18:08;3.75;;;1.90;;
34212;SDS011;20477;51.390;8.102;2023-10-31T09:20:35;5.07;;;2.03;;
34212;SDS011;20477;51.390;8.102;2023-10-31T09:23:02;3.67;;;2.17;;
34212;SDS011;20477;51.390;8.102;2023-10-31T09:25:30;3.15;;;2.03;;
34212;SDS011;20477;51.390;8.102;2023-10-31T09:27:57;4.07;;;1.85;;
34212;SDS011;20477;51.390;8.102;2023-10-31T09:30:24;5.05;;;2.30;;
34212;SDS011;20477;51.390;8.102;2023-10-31T09:32:53;4.45;;;2.58;;
34212;SDS011;20477;51.390;8.102;2023-10-31T09:35:20;4.18;;;2.10;;
34212;SDS011;20477;51.390;8.102;2023-10-31T09:37:48;3.03;;;2.05;;
34212;SDS011;20477;51.390;8.102;2023-10-31T09:40:15;3.25;;;2.13;;
34212;SDS011;20477;51.390;8.102;2023-10-31T09:42:43;10.25;;;2.42;;
34212;SDS011;20477;51.390;8.102;2023-10-31T09:45:11;2.53;;;2.33;;
34212;SDS011;20477;51.390;8.102;2023-10-31T09:47:38;5.13;;;2.35;;
34212;SDS011;20477;51.390;8.102;2023-10-31T09:50:07;4.15;;;2.60;;
34212;SDS011;20477;51.390;8.102;2023-10-31T09:52:35;3.15;;;2.33;;
34212;SDS011;20477;51.390;8.102;2023-10-31T09:55:03;5.95;;;2.75;;
34212;SDS011;20477;51.390;8.102;2023-10-31T09:57:30;4.53;;;2.65;;
34212;SDS011;20477;51.390;8.102;2023-10-31T09:59:58;4.70;;;2.78;;
34212;SDS011;20477;51.390;8.102;2023-10-31T10:02:25;6.20;;;3.15;;
34212;SDS011;20477;51.390;8.102;2023-10-31T10:04:53;7.97;;;3.65;;
34212;SDS011;20477;51.390;8.102;2023-10-31T10:07:21;7.65;;;3.60;;
34212;SDS011;20477;51.390;8.102;2023-10-31T10:09:48;5.57;;;3.60;;
34212;SDS011;20477;51.390;8.102;2023-10-31T10:12:16;6.75;;;4.00;;
34212;SDS011;20477;51.390;8.102;2023-10-31T10:14:44;5.05;;;4.07;;
34212;SDS011;20477;51.390;8.102;2023-10-31T10:17:15;4.70;;;3.92;;
34212;SDS011;20477;51.390;8.102;2023-10-31T10:19:42;6.35;;;4.20;;
34212;SDS011;20477;51.390;8.102;2023-10-31T10:22:10;5.60;;;4.18;;
34212;SDS011;20477;51.390;8.102;2023-10-31T10:24:40;5.43;;;4.03;;
34212;SDS011;20477;51.390;8.102;2023-10-31T10:27:07;8.88;;;4.03;;
34212;SDS011;20477;51.390;8.102;2023-10-31T10:29:35;5.47;;;3.08;;
34212;SDS011;20477;51.390;8.102;2023-10-31T10:32:04;6.85;;;3.65;;
34212;SDS011;20477;51.390;8.102;2023-10-31T10:34:31;4.82;;;3.70;;
34212;SDS011;20477;51.390;8.102;2023-10-31T10:36:59;3.70;;;3.10;;
34212;SDS011;20477;51.390;8.102;2023-10-31T10:39:26;4.03;;;3.28;;
34212;SDS011;20477;51.390;8.102;2023-10-31T10:41:55;4.80;;;3.33;;
34212;SDS011;20477;51.390;8.102;2023-10-31T10:44:25;8.13;;;3.60;;
34212;SDS011;20477;51.390;8.102;2023-10-31T10:46:55;5.03;;;3.23;;
34212;SDS011;20477;51.390;8.102;2023-10-31T10:49:23;8.30;;;3.53;;
34212;SDS011;20477;51.390;8.102;2023-10-31T10:51:52;7.35;;;4.32;;
34212;SDS011;20477;51.390;8.102;2023-10-31T10:54:22;6.38;;;3.05;;
34212;SDS011;20477;51.390;8.102;2023-10-31T10:56:53;6.30;;;3.67;;
34212;SDS011;20477;51.390;8.102;2023-10-31T10:59:24;4.55;;;3.13;;
34212;SDS011;20477;51.390;8.102;2023-10-31T11:01:56;4.95;;;2.72;;
34212;SDS011;20477;51.390;8.102;2023-10-31T11:04:25;4.05;;;2.83;;
34212;SDS011;20477;51.390;8.102;2023-10-31T11:06:53;7.57;;;3.38;;
34212;SDS011;20477;51.390;8.102;2023-10-31T11:09:20;8.10;;;3.10;;
34212;SDS011;20477;51.390;8.102;2023-10-31T11:11:48;5.10;;;2.95;;
34212;SDS011;20477;51.390;8.102;2023-10-31T11:14:17;5.80;;;3.20;;
34212;SDS011;20477;51.390;8.102;2023-10-31T11:16:48;7.40;;;3.35;;
34212;SDS011;20477;51.390;8.102;2023-10-31T11:19:17;5.32;;;3.65;;
34212;SDS011;20477;51.390;8.102;2023-10-31T11:24:31;7.43;;;3.20;;
34212;SDS011;20477;51.390;8.102;2023-10-31T11:26:59;8.90;;;3.30;;
34212;SDS011;20477;51.390;8.102;2023-10-31T11:29:27;6.88;;;3.13;;
34212;SDS011;20477;51.390;8.102;2023-10-31T11:31:56;6.68;;;3.58;;
34212;SDS011;20477;51.390;8.102;2023-10-31T11:34:23;8.20;;;3.13;;
34212;SDS011;20477;51.390;8.102;2023-10-31T11:36:52;8.45;;;3.50;;
34212;SDS011;20477;51.390;8.102;2023-10-31T11:39:21;7.15;;;3.28;;
34212;SDS011;20477;51.390;8.102;2023-10-31T11:41:49;8.18;;;2.70;;
34212;SDS011;20477;51.390;8.102;2023-10-31T11:44:16;7.65;;;3.67;;
34212;SDS011;20477;51.390;8.102;2023-10-31T11:46:43;10.35;;;3.35;;
34212;SDS011;20477;51.390;8.102;2023-10-31T11:49:12;7.63;;;3.30;;
34212;SDS011;20477;51.390;8.102;2023-10-31T11:51:39;9.55;;;3.13;;
34212;SDS011;20477;51.390;8.102;2023-10-31T11:54:07;6.60;;;3.60;;
34212;SDS011;20477;51.390;8.102;2023-10-31T11:56:34;8.15;;;3.47;;
34212;SDS011;20477;51.390;8.102;2023-10-31T11:59:02;8.82;;;3.88;;
34212;SDS011;20477;51.390;8.102;2023-10-31T12:01:29;8.02;;;3.90;;
34212;SDS011;20477;51.390;8.102;2023-10-31T12:03:57;12.82;;;5.40;;
34212;SDS011;20477;51.390;8.102;2023-10-31T12:06:26;10.35;;;3.63;;
34212;SDS011;20477;51.390;8.102;2023-10-31T12:08:53;8.85;;;3.63;;
34212;SDS011;20477;51.390;8.102;2023-10-31T12:11:26;7.03;;;3.38;;
34212;SDS011;20477;51.390;8.102;2023-10-31T12:13:54;9.02;;;3.63;;
34212;SDS011;20477;51.390;8.102;2023-10-31T12:16:22;10.70;;;3.90;;
34212;SDS011;20477;51.390;8.102;2023-10-31T12:18:53;13.25;;;4.30;;
34212;SDS011;20477;51.390;8.102;2023-10-31T12:21:34;7.07;;;3.08;;
34212;SDS011;20477;51.390;8.102;2023-10-31T12:24:03;6.63;;;3.30;;
34212;SDS011;20477;51.390;8.102;2023-10-31T12:26:31;13.30;;;3.47;;
34212;SDS011;20477;51.390;8.102;2023-10-31T12:29:09;8.32;;;3.20;;
34212;SDS011;20477;51.390;8.102;2023-10-31T12:31:40;10.23;;;5.10;;
34212;SDS011;20477;51.390;8.102;2023-10-31T12:34:09;6.13;;;3.10;;
34212;SDS011;20477;51.390;8.102;2023-10-31T12:36:38;13.00;;;3.55;;
34212;SDS011;20477;51.390;8.102;2023-10-31T12:39:05;7.65;;;2.90;;
34212;SDS011;20477;51.390;8.102;2023-10-31T12:41:33;8.57;;;3.67;;
34212;SDS011;20477;51.390;8.102;2023-10-31T12:44:01;13.35;;;3.65;;
34212;SDS011;20477;51.390;8.102;2023-10-31T12:46:28;6.68;;;2.90;;
34212;SDS011;20477;51.390;8.102;2023-10-31T12:48:56;9.30;;;3.40;;
34212;SDS011;20477;51.390;8.102;2023-10-31T12:51:23;6.05;;;3.20;;
34212;SDS011;20477;51.390;8.102;2023-10-31T12:53:52;7.55;;;2.95;;
34212;SDS011;20477;51.390;8.102;2023-10-31T12:56:36;14.57;;;3.10;;
34212;SDS011;20477;51.390;8.102;2023-10-31T12:59:03;6.35;;;2.25;;
34212;SDS011;20477;51.390;8.102;2023-10-31T13:01:30;10.32;;;2.92;;
34212;SDS011;20477;51.390;8.102;2023-10-31T13:03:58;7.82;;;2.33;;
34212;SDS011;20477;51.390;8.102;2023-10-31T13:06:25;11.77;;;2.92;;
34212;SDS011;20477;51.390;8.102;2023-10-31T13:08:56;7.82;;;2.10;;
34212;SDS011;20477;51.390;8.102;2023-10-31T13:11:23;8.80;;;2.42;;
34212;SDS011;20477;51.390;8.102;2023-10-31T13:13:50;9.93;;;1.98;;
34212;SDS011;20477;51.390;8.102;2023-10-31T13:16:18;9.63;;;2.65;;
34212;SDS011;20477;51.390;8.102;2023-10-31T13:18:45;10.90;;;2.53;;
34212;SDS011;20477;51.390;8.102;2023-10-31T13:21:12;8.68;;;2.22;;
34212;SDS011;20477;51.390;8.102;2023-10-31T13:23:40;21.25;;;3.15;;
34212;SDS011;20477;51.390;8.102;2023-10-31T13:26:08;10.25;;;2.10;;
34212;SDS011;20477;51.390;8.102;2023-10-31T13:28:35;5.60;;;2.20;;
34212;SDS011;20477;51.390;8.102;2023-10-31T13:31:03;7.30;;;2.10;;
34212;SDS011;20477;51.390;8.102;2023-10-31T13:33:30;6.18;;;2.63;;
34212;SDS011;20477;51.390;8.102;2023-10-31T13:35:58;11.68;;;2.72;;
34212;SDS011;20477;51.390;8.102;2023-10-31T13:38:25;8.70;;;2.42;;
34212;SDS011;20477;51.390;8.102;2023-10-31T13:40:52;10.18;;;2.28;;
34212;SDS011;20477;51.390;8.102;2023-10-31T13:43:21;8.45;;;2.25;;
34212;SDS011;20477;51.390;8.102;2023-10-31T13:45:48;11.15;;;2.10;;
34212;SDS011;20477;51.390;8.102;2023-10-31T13:48:15;7.28;;;2.20;;
34212;SDS011;20477;51.390;8.102;2023-10-31T13:50:43;8.85;;;2.63;;
34212;SDS011;20477;51.390;8.102;2023-10-31T13:53:10;10.05;;;2.60;;
34212;SDS011;20477;51.390;8.102;2023-10-31T13:55:37;9.30;;;1.90;;
34212;SDS011;20477;51.390;8.102;2023-10-31T13:58:04;11.18;;;2.70;;
34212;SDS011;20477;51.390;8.102;2023-10-31T14:00:33;9.20;;;3.42;;
34212;SDS011;20477;51.390;8.102;2023-10-31T14:03:00;6.00;;;2.45;;
34212;SDS011;20477;51.390;8.102;2023-10-31T14:05:28;5.13;;;2.22;;
34212;SDS011;20477;51.390;8.102;2023-10-31T14:07:55;11.02;;;1.95;;
34212;SDS011;20477;51.390;8.102;2023-10-31T14:10:23;7.85;;;2.08;;
34212;SDS011;20477;51.390;8.102;2023-10-31T14:12:50;9.13;;;2.40;;
34212;SDS011;20477;51.390;8.102;2023-10-31T14:15:17;5.80;;;2.30;;
34212;SDS011;20477;51.390;8.102;2023-10-31T14:17:46;5.57;;;2.00;;
34212;SDS011;20477;51.390;8.102;2023-10-31T14:20:13;4.20;;;2.08;;
34212;SDS011;20477;51.390;8.102;2023-10-31T14:22:44;4.97;;;2.00;;
34212;SDS011;20477;51.390;8.102;2023-10-31T14:25:13;5.32;;;2.13;;
34212;SDS011;20477;51.390;8.102;2023-10-31T14:27:40;4.40;;;2.47;;
34212;SDS011;20477;51.390;8.102;2023-10-31T14:30:11;6.28;;;2.08;;
34212;SDS011;20477;51.390;8.102;2023-10-31T14:32:38;6.03;;;1.65;;
34212;SDS011;20477;51.390;8.102;2023-10-31T14:35:07;10.73;;;2.38;;
34212;SDS011;20477;51.390;8.102;2023-10-31T14:37:35;5.80;;;1.92;;
34212;SDS011;20477;51.390;8.102;2023-10-31T14:40:02;6.53;;;2.00;;
34212;SDS011;20477;51.390;8.102;2023-10-31T14:42:30;4.10;;;1.77;;
34212;SDS011;20477;51.390;8.102;2023-10-31T14:44:57;7.65;;;1.52;;
34212;SDS011;20477;51.390;8.102;2023-10-31T14:47:24;6.50;;;1.90;;
34212;SDS011;20477;51.390;8.102;2023-10-31T14:49:51;7.88;;;1.55;;
34212;SDS011;20477;51.390;8.102;2023-10-31T14:52:20;5.47;;;1.65;;
34212;SDS011;20477;51.390;8.102;2023-10-31T14:54:47;7.80;;;1.63;;